sensor_id;sensor_type;location;lat;lon;timestamp;temperature;humidity
32612;DHT22;19030;49.478;8.986;2022-07-26T00:01:22;21.80;77.20
32612;DHT22;19030;49.478;8.986;2022-07-26T00:03:23;21.90;78.20
32612;DHT22;19030;49.478;8.986;2022-07-26T00:05:23;21.90;78.30
32612;DHT22;19030;49.478;8.986;2022-07-26T00:07:24;22.00;77.10
32612;DHT22;19030;49.478;8.986;2022-07-26T00:09:25;22.00;76.50
32612;DHT22;19030;49.478;8.986;2022-07-26T00:11:25;22.00;77.60
32612;DHT22;19030;49.478;8.986;2022-07-26T00:13:26;22.10;78.90
32612;DHT22;19030;49.478;8.986;2022-07-26T00:15:27;22.10;79.40
32612;DHT22;19030;49.478;8.986;2022-07-26T00:17:27;22.10;79.60
32612;DHT22;19030;49.478;8.986;2022-07-26T00:19:28;22.10;80.40
32612;DHT22;19030;49.478;8.986;2022-07-26T00:21:47;22.10;80.60
32612;DHT22;19030;49.478;8.986;2022-07-26T00:24:08;22.10;80.90
32612;DHT22;19030;49.478;8.986;2022-07-26T00:26:09;22.10;80.70
32612;DHT22;19030;49.478;8.986;2022-07-26T00:28:10;22.00;81.10
32612;DHT22;19030;49.478;8.986;2022-07-26T00:30:11;22.00;81.50
32612;DHT22;19030;49.478;8.986;2022-07-26T00:32:12;22.00;81.70
32612;DHT22;19030;49.478;8.986;2022-07-26T00:34:12;22.00;82.10
32612;DHT22;19030;49.478;8.986;2022-07-26T00:36:13;22.00;82.60
32612;DHT22;19030;49.478;8.986;2022-07-26T00:38:14;21.90;83.00
32612;DHT22;19030;49.478;8.986;2022-07-26T00:40:14;21.90;83.10
32612;DHT22;19030;49.478;8.986;2022-07-26T00:42:15;21.90;82.30
32612;DHT22;19030;49.478;8.986;2022-07-26T00:44:16;21.90;82.10
32612;DHT22;19030;49.478;8.986;2022-07-26T00:46:17;21.90;82.50
32612;DHT22;19030;49.478;8.986;2022-07-26T00:48:17;21.80;82.60
32612;DHT22;19030;49.478;8.986;2022-07-26T00:50:18;21.80;82.80
32612;DHT22;19030;49.478;8.986;2022-07-26T00:52:19;21.80;82.90
32612;DHT22;19030;49.478;8.986;2022-07-26T00:54:20;21.80;83.10
32612;DHT22;19030;49.478;8.986;2022-07-26T00:56:20;21.70;83.10
32612;DHT22;19030;49.478;8.986;2022-07-26T00:58:21;21.70;83.40
32612;DHT22;19030;49.478;8.986;2022-07-26T01:00:24;21.70;83.80
32612;DHT22;19030;49.478;8.986;2022-07-26T01:02:27;21.70;84.20
32612;DHT22;19030;49.478;8.986;2022-07-26T01:04:28;21.60;84.80
32612;DHT22;19030;49.478;8.986;2022-07-26T01:06:28;21.60;85.40
32612;DHT22;19030;49.478;8.986;2022-07-26T01:08:29;21.50;85.30
32612;DHT22;19030;49.478;8.986;2022-07-26T01:10:30;21.50;85.10
32612;DHT22;19030;49.478;8.986;2022-07-26T01:12:30;21.50;85.00
32612;DHT22;19030;49.478;8.986;2022-07-26T01:14:31;21.40;85.30
32612;DHT22;19030;49.478;8.986;2022-07-26T01:16:32;21.40;86.10
32612;DHT22;19030;49.478;8.986;2022-07-26T01:18:32;21.30;86.50
32612;DHT22;19030;49.478;8.986;2022-07-26T01:20:33;21.30;86.70
32612;DHT22;19030;49.478;8.986;2022-07-26T01:22:34;21.30;85.90
32612;DHT22;19030;49.478;8.986;2022-07-26T01:24:34;21.20;86.10
32612;DHT22;19030;49.478;8.986;2022-07-26T01:26:35;21.20;86.80
32612;DHT22;19030;49.478;8.986;2022-07-26T01:28:36;21.10;86.60
32612;DHT22;19030;49.478;8.986;2022-07-26T01:30:37;21.00;86.70
32612;DHT22;19030;49.478;8.986;2022-07-26T01:32:38;21.00;87.30
32612;DHT22;19030;49.478;8.986;2022-07-26T01:34:38;20.90;87.70
32612;DHT22;19030;49.478;8.986;2022-07-26T01:36:39;20.90;88.30
32612;DHT22;19030;49.478;8.986;2022-07-26T01:38:40;20.90;88.80
32612;DHT22;19030;49.478;8.986;2022-07-26T01:40:41;20.90;89.30
32612;DHT22;19030;49.478;8.986;2022-07-26T01:42:42;20.90;89.70
32612;DHT22;19030;49.478;8.986;2022-07-26T01:44:42;20.90;89.80
32612;DHT22;19030;49.478;8.986;2022-07-26T01:46:43;20.90;90.00
32612;DHT22;19030;49.478;8.986;2022-07-26T01:48:43;20.90;90.10
32612;DHT22;19030;49.478;8.986;2022-07-26T01:50:44;20.90;90.20
32612;DHT22;19030;49.478;8.986;2022-07-26T01:52:45;20.90;90.10
32612;DHT22;19030;49.478;8.986;2022-07-26T01:54:45;20.90;90.30
32612;DHT22;19030;49.478;8.986;2022-07-26T01:56:46;20.80;90.60
32612;DHT22;19030;49.478;8.986;2022-07-26T01:58:46;20.80;90.60
32612;DHT22;19030;49.478;8.986;2022-07-26T02:00:47;20.80;90.80
32612;DHT22;19030;49.478;8.986;2022-07-26T02:02:48;20.70;91.00
32612;DHT22;19030;49.478;8.986;2022-07-26T02:04:49;20.70;91.00
32612;DHT22;19030;49.478;8.986;2022-07-26T02:06:58;20.60;91.10
32612;DHT22;19030;49.478;8.986;2022-07-26T02:08:59;20.60;91.30
32612;DHT22;19030;49.478;8.986;2022-07-26T02:11:00;20.60;91.40
32612;DHT22;19030;49.478;8.986;2022-07-26T02:13:00;20.60;91.70
32612;DHT22;19030;49.478;8.986;2022-07-26T02:15:03;20.50;91.80
32612;DHT22;19030;49.478;8.986;2022-07-26T02:17:03;20.50;92.00
32612;DHT22;19030;49.478;8.986;2022-07-26T02:19:04;20.40;92.10
32612;DHT22;19030;49.478;8.986;2022-07-26T02:21:05;20.40;92.30
32612;DHT22;19030;49.478;8.986;2022-07-26T02:23:06;20.30;92.40
32612;DHT22;19030;49.478;8.986;2022-07-26T02:25:07;20.30;92.90
32612;DHT22;19030;49.478;8.986;2022-07-26T02:27:08;20.20;92.70
32612;DHT22;19030;49.478;8.986;2022-07-26T02:29:09;20.20;92.90
32612;DHT22;19030;49.478;8.986;2022-07-26T02:31:10;20.20;93.00
32612;DHT22;19030;49.478;8.986;2022-07-26T02:33:11;20.20;93.10
32612;DHT22;19030;49.478;8.986;2022-07-26T02:38:33;20.20;93.20
32612;DHT22;19030;49.478;8.986;2022-07-26T02:40:35;20.20;93.50
32612;DHT22;19030;49.478;8.986;2022-07-26T02:42:36;20.10;93.60
32612;DHT22;19030;49.478;8.986;2022-07-26T02:44:36;20.10;93.90
32612;DHT22;19030;49.478;8.986;2022-07-26T02:46:37;20.10;94.10
32612;DHT22;19030;49.478;8.986;2022-07-26T02:48:37;20.00;94.30
32612;DHT22;19030;49.478;8.986;2022-07-26T02:50:38;19.90;94.50
32612;DHT22;19030;49.478;8.986;2022-07-26T02:52:39;19.80;94.60
32612;DHT22;19030;49.478;8.986;2022-07-26T02:54:39;19.70;94.90
32612;DHT22;19030;49.478;8.986;2022-07-26T02:56:40;19.70;95.20
32612;DHT22;19030;49.478;8.986;2022-07-26T02:58:40;19.60;95.50
32612;DHT22;19030;49.478;8.986;2022-07-26T03:00:41;19.60;95.70
32612;DHT22;19030;49.478;8.986;2022-07-26T03:02:41;19.50;95.80
32612;DHT22;19030;49.478;8.986;2022-07-26T03:04:42;19.50;96.00
32612;DHT22;19030;49.478;8.986;2022-07-26T03:06:43;19.50;96.10
32612;DHT22;19030;49.478;8.986;2022-07-26T03:08:44;19.40;96.30
32612;DHT22;19030;49.478;8.986;2022-07-26T03:10:44;19.40;96.40
32612;DHT22;19030;49.478;8.986;2022-07-26T03:12:45;19.40;96.60
32612;DHT22;19030;49.478;8.986;2022-07-26T03:14:45;19.30;96.60
32612;DHT22;19030;49.478;8.986;2022-07-26T03:16:46;19.30;96.80
32612;DHT22;19030;49.478;8.986;2022-07-26T03:18:46;19.30;97.00
32612;DHT22;19030;49.478;8.986;2022-07-26T03:20:47;19.20;97.10
32612;DHT22;19030;49.478;8.986;2022-07-26T03:22:49;19.10;97.30
32612;DHT22;19030;49.478;8.986;2022-07-26T03:24:49;19.10;97.50
32612;DHT22;19030;49.478;8.986;2022-07-26T03:26:50;19.10;97.60
32612;DHT22;19030;49.478;8.986;2022-07-26T03:28:50;19.00;97.70
32612;DHT22;19030;49.478;8.986;2022-07-26T03:30:52;18.90;97.70
32612;DHT22;19030;49.478;8.986;2022-07-26T03:32:52;18.90;98.00
32612;DHT22;19030;49.478;8.986;2022-07-26T03:34:53;18.80;98.20
32612;DHT22;19030;49.478;8.986;2022-07-26T03:36:54;18.80;98.50
32612;DHT22;19030;49.478;8.986;2022-07-26T03:38:54;18.70;98.60
32612;DHT22;19030;49.478;8.986;2022-07-26T03:40:55;18.70;98.80
32612;DHT22;19030;49.478;8.986;2022-07-26T03:42:55;18.60;99.10
32612;DHT22;19030;49.478;8.986;2022-07-26T03:44:56;18.60;99.20
32612;DHT22;19030;49.478;8.986;2022-07-26T03:46:57;18.50;99.40
32612;DHT22;19030;49.478;8.986;2022-07-26T03:48:58;18.50;99.60
32612;DHT22;19030;49.478;8.986;2022-07-26T03:50:59;18.50;99.80
32612;DHT22;19030;49.478;8.986;2022-07-26T03:52:59;18.50;99.90
32612;DHT22;19030;49.478;8.986;2022-07-26T03:55:00;18.50;99.90
32612;DHT22;19030;49.478;8.986;2022-07-26T03:57:20;18.40;99.90
32612;DHT22;19030;49.478;8.986;2022-07-26T03:59:21;18.40;99.90
32612;DHT22;19030;49.478;8.986;2022-07-26T04:01:23;18.40;99.90
32612;DHT22;19030;49.478;8.986;2022-07-26T04:03:24;18.40;99.90
32612;DHT22;19030;49.478;8.986;2022-07-26T04:05:24;18.40;99.90
32612;DHT22;19030;49.478;8.986;2022-07-26T04:07:25;18.40;99.90
32612;DHT22;19030;49.478;8.986;2022-07-26T04:09:25;18.40;99.90
32612;DHT22;19030;49.478;8.986;2022-07-26T04:11:26;18.40;99.90
32612;DHT22;19030;49.478;8.986;2022-07-26T04:13:26;18.40;99.90
32612;DHT22;19030;49.478;8.986;2022-07-26T04:15:27;18.40;99.90
32612;DHT22;19030;49.478;8.986;2022-07-26T04:17:28;18.40;99.90
32612;DHT22;19030;49.478;8.986;2022-07-26T04:19:29;18.40;99.90
32612;DHT22;19030;49.478;8.986;2022-07-26T04:21:29;18.50;99.90
32612;DHT22;19030;49.478;8.986;2022-07-26T04:23:30;18.50;99.90
32612;DHT22;19030;49.478;8.986;2022-07-26T04:25:31;18.50;99.90
32612;DHT22;19030;49.478;8.986;2022-07-26T04:27:34;18.50;99.90
32612;DHT22;19030;49.478;8.986;2022-07-26T04:29:35;18.50;99.90
32612;DHT22;19030;49.478;8.986;2022-07-26T04:31:36;18.50;99.90
32612;DHT22;19030;49.478;8.986;2022-07-26T04:33:36;18.50;99.90
32612;DHT22;19030;49.478;8.986;2022-07-26T04:35:37;18.60;99.90
32612;DHT22;19030;49.478;8.986;2022-07-26T04:37:39;18.60;99.90
32612;DHT22;19030;49.478;8.986;2022-07-26T04:39:40;18.70;99.90
32612;DHT22;19030;49.478;8.986;2022-07-26T04:41:40;18.80;99.90
32612;DHT22;19030;49.478;8.986;2022-07-26T04:43:41;18.90;99.90
32612;DHT22;19030;49.478;8.986;2022-07-26T04:45:43;19.00;99.90
32612;DHT22;19030;49.478;8.986;2022-07-26T04:47:45;19.10;99.90
32612;DHT22;19030;49.478;8.986;2022-07-26T04:49:48;19.20;99.90
32612;DHT22;19030;49.478;8.986;2022-07-26T04:51:49;19.20;99.90
32612;DHT22;19030;49.478;8.986;2022-07-26T04:53:50;19.30;99.90
32612;DHT22;19030;49.478;8.986;2022-07-26T04:55:50;19.30;99.90
32612;DHT22;19030;49.478;8.986;2022-07-26T04:57:51;19.30;99.90
32612;DHT22;19030;49.478;8.986;2022-07-26T04:59:51;19.40;99.80
32612;DHT22;19030;49.478;8.986;2022-07-26T05:01:52;19.40;99.80
32612;DHT22;19030;49.478;8.986;2022-07-26T05:03:52;19.60;99.80
32612;DHT22;19030;49.478;8.986;2022-07-26T05:05:53;19.70;99.20
32612;DHT22;19030;49.478;8.986;2022-07-26T05:07:56;19.80;98.90
32612;DHT22;19030;49.478;8.986;2022-07-26T05:09:57;19.90;98.60
32612;DHT22;19030;49.478;8.986;2022-07-26T05:11:57;20.10;98.20
32612;DHT22;19030;49.478;8.986;2022-07-26T05:13:58;20.10;97.90
32612;DHT22;19030;49.478;8.986;2022-07-26T05:15:59;20.20;97.80
32612;DHT22;19030;49.478;8.986;2022-07-26T05:18:02;20.30;98.10
32612;DHT22;19030;49.478;8.986;2022-07-26T05:20:03;20.40;97.60
32612;DHT22;19030;49.478;8.986;2022-07-26T05:22:04;20.40;97.50
32612;DHT22;19030;49.478;8.986;2022-07-26T05:24:04;20.40;97.60
32612;DHT22;19030;49.478;8.986;2022-07-26T05:26:05;20.30;97.70
32612;DHT22;19030;49.478;8.986;2022-07-26T05:28:06;20.30;97.70
32612;DHT22;19030;49.478;8.986;2022-07-26T05:30:07;20.40;97.60
32612;DHT22;19030;49.478;8.986;2022-07-26T05:32:08;20.40;97.60
32612;DHT22;19030;49.478;8.986;2022-07-26T05:34:09;20.50;97.50
32612;DHT22;19030;49.478;8.986;2022-07-26T05:36:09;20.60;97.40
32612;DHT22;19030;49.478;8.986;2022-07-26T05:38:10;20.80;97.10
32612;DHT22;19030;49.478;8.986;2022-07-26T05:40:11;20.90;96.90
32612;DHT22;19030;49.478;8.986;2022-07-26T05:42:12;20.90;96.60
32612;DHT22;19030;49.478;8.986;2022-07-26T05:44:13;20.90;96.60
32612;DHT22;19030;49.478;8.986;2022-07-26T05:46:13;20.90;96.60
32612;DHT22;19030;49.478;8.986;2022-07-26T05:48:15;20.90;96.40
32612;DHT22;19030;49.478;8.986;2022-07-26T05:50:15;20.90;96.20
32612;DHT22;19030;49.478;8.986;2022-07-26T05:52:16;21.00;96.10
32612;DHT22;19030;49.478;8.986;2022-07-26T05:54:17;21.00;95.80
32612;DHT22;19030;49.478;8.986;2022-07-26T05:56:18;21.10;95.30
32612;DHT22;19030;49.478;8.986;2022-07-26T05:58:19;21.10;95.10
32612;DHT22;19030;49.478;8.986;2022-07-26T06:00:20;21.20;94.50
32612;DHT22;19030;49.478;8.986;2022-07-26T06:02:20;21.40;94.30
32612;DHT22;19030;49.478;8.986;2022-07-26T06:04:22;21.50;94.10
32612;DHT22;19030;49.478;8.986;2022-07-26T06:06:23;21.50;94.10
32612;DHT22;19030;49.478;8.986;2022-07-26T06:08:24;21.60;94.00
32612;DHT22;19030;49.478;8.986;2022-07-26T06:10:25;21.60;93.80
32612;DHT22;19030;49.478;8.986;2022-07-26T06:12:26;21.80;93.70
32612;DHT22;19030;49.478;8.986;2022-07-26T06:14:26;21.90;93.30
32612;DHT22;19030;49.478;8.986;2022-07-26T06:16:27;22.00;93.00
32612;DHT22;19030;49.478;8.986;2022-07-26T06:18:28;22.10;92.70
32612;DHT22;19030;49.478;8.986;2022-07-26T06:20:28;22.30;92.70
32612;DHT22;19030;49.478;8.986;2022-07-26T06:22:29;22.50;92.20
32612;DHT22;19030;49.478;8.986;2022-07-26T06:24:30;22.80;92.00
32612;DHT22;19030;49.478;8.986;2022-07-26T06:26:30;23.10;91.70
32612;DHT22;19030;49.478;8.986;2022-07-26T06:28:31;23.40;91.20
32612;DHT22;19030;49.478;8.986;2022-07-26T06:30:33;23.60;90.70
32612;DHT22;19030;49.478;8.986;2022-07-26T06:32:34;23.80;91.30
32612;DHT22;19030;49.478;8.986;2022-07-26T06:34:35;23.90;85.00
32612;DHT22;19030;49.478;8.986;2022-07-26T06:36:35;23.80;79.90
32612;DHT22;19030;49.478;8.986;2022-07-26T06:38:36;23.70;79.40
32612;DHT22;19030;49.478;8.986;2022-07-26T06:40:36;23.60;79.10
32612;DHT22;19030;49.478;8.986;2022-07-26T06:42:37;23.60;77.10
32612;DHT22;19030;49.478;8.986;2022-07-26T06:44:38;23.80;78.80
32612;DHT22;19030;49.478;8.986;2022-07-26T06:46:39;24.00;76.50
32612;DHT22;19030;49.478;8.986;2022-07-26T06:48:39;24.20;76.60
32612;DHT22;19030;49.478;8.986;2022-07-26T06:50:40;24.30;74.00
32612;DHT22;19030;49.478;8.986;2022-07-26T06:52:41;24.40;73.20
32612;DHT22;19030;49.478;8.986;2022-07-26T06:54:41;24.80;72.50
32612;DHT22;19030;49.478;8.986;2022-07-26T06:56:42;25.60;70.00
32612;DHT22;19030;49.478;8.986;2022-07-26T06:58:42;26.60;65.80
32612;DHT22;19030;49.478;8.986;2022-07-26T07:00:43;27.40;61.30
32612;DHT22;19030;49.478;8.986;2022-07-26T07:02:44;28.30;58.30
32612;DHT22;19030;49.478;8.986;2022-07-26T07:04:44;29.20;56.30
32612;DHT22;19030;49.478;8.986;2022-07-26T07:06:45;29.90;53.30
32612;DHT22;19030;49.478;8.986;2022-07-26T07:08:47;30.20;51.40
32612;DHT22;19030;49.478;8.986;2022-07-26T07:10:48;30.40;51.00
32612;DHT22;19030;49.478;8.986;2022-07-26T07:12:49;30.30;50.30
32612;DHT22;19030;49.478;8.986;2022-07-26T07:14:50;30.30;50.00
32612;DHT22;19030;49.478;8.986;2022-07-26T07:16:50;30.40;49.60
32612;DHT22;19030;49.478;8.986;2022-07-26T07:18:51;30.40;49.00
32612;DHT22;19030;49.478;8.986;2022-07-26T07:20:51;30.30;48.40
32612;DHT22;19030;49.478;8.986;2022-07-26T07:22:52;30.20;48.90
32612;DHT22;19030;49.478;8.986;2022-07-26T07:24:53;30.20;48.90
32612;DHT22;19030;49.478;8.986;2022-07-26T07:26:53;30.20;49.10
32612;DHT22;19030;49.478;8.986;2022-07-26T07:28:54;30.10;48.80
32612;DHT22;19030;49.478;8.986;2022-07-26T07:30:55;29.90;48.70
32612;DHT22;19030;49.478;8.986;2022-07-26T07:32:55;29.40;49.50
32612;DHT22;19030;49.478;8.986;2022-07-26T07:34:56;28.70;50.00
32612;DHT22;19030;49.478;8.986;2022-07-26T07:36:57;27.70;51.90
32612;DHT22;19030;49.478;8.986;2022-07-26T07:38:57;27.10;53.30
32612;DHT22;19030;49.478;8.986;2022-07-26T07:40:58;26.90;53.80
32612;DHT22;19030;49.478;8.986;2022-07-26T07:42:58;26.90;54.30
32612;DHT22;19030;49.478;8.986;2022-07-26T07:44:59;27.20;54.20
32612;DHT22;19030;49.478;8.986;2022-07-26T07:47:00;27.40;53.00
32612;DHT22;19030;49.478;8.986;2022-07-26T07:49:00;27.30;53.20
32612;DHT22;19030;49.478;8.986;2022-07-26T07:51:01;26.80;54.30
32612;DHT22;19030;49.478;8.986;2022-07-26T07:53:01;26.20;55.60
32612;DHT22;19030;49.478;8.986;2022-07-26T07:55:02;25.70;56.90
32612;DHT22;19030;49.478;8.986;2022-07-26T07:57:03;25.30;58.30
32612;DHT22;19030;49.478;8.986;2022-07-26T07:59:03;25.50;58.90
32612;DHT22;19030;49.478;8.986;2022-07-26T08:01:04;25.80;58.10
32612;DHT22;19030;49.478;8.986;2022-07-26T08:03:04;25.90;58.00
32612;DHT22;19030;49.478;8.986;2022-07-26T08:05:05;26.10;55.80
32612;DHT22;19030;49.478;8.986;2022-07-26T08:07:08;26.30;55.00
32612;DHT22;19030;49.478;8.986;2022-07-26T08:09:09;26.50;54.00
32612;DHT22;19030;49.478;8.986;2022-07-26T08:11:09;26.20;54.20
32612;DHT22;19030;49.478;8.986;2022-07-26T08:13:10;25.70;54.60
32612;DHT22;19030;49.478;8.986;2022-07-26T08:15:11;25.40;55.80
32612;DHT22;19030;49.478;8.986;2022-07-26T08:17:11;25.60;55.40
32612;DHT22;19030;49.478;8.986;2022-07-26T08:19:12;26.30;54.50
32612;DHT22;19030;49.478;8.986;2022-07-26T08:21:12;27.00;53.20
32612;DHT22;19030;49.478;8.986;2022-07-26T08:23:13;27.40;52.20
32612;DHT22;19030;49.478;8.986;2022-07-26T08:25:14;27.70;52.00
32612;DHT22;19030;49.478;8.986;2022-07-26T08:27:14;27.90;52.00
32612;DHT22;19030;49.478;8.986;2022-07-26T08:29:15;28.30;51.00
32612;DHT22;19030;49.478;8.986;2022-07-26T08:31:15;28.90;50.10
32612;DHT22;19030;49.478;8.986;2022-07-26T08:33:16;28.70;49.50
32612;DHT22;19030;49.478;8.986;2022-07-26T08:35:17;28.50;50.00
32612;DHT22;19030;49.478;8.986;2022-07-26T08:37:18;28.80;49.90
32612;DHT22;19030;49.478;8.986;2022-07-26T08:39:18;29.10;50.00
32612;DHT22;19030;49.478;8.986;2022-07-26T08:41:20;29.80;48.30
32612;DHT22;19030;49.478;8.986;2022-07-26T08:43:22;30.00;47.30
32612;DHT22;19030;49.478;8.986;2022-07-26T08:45:25;30.60;46.60
32612;DHT22;19030;49.478;8.986;2022-07-26T08:47:26;31.10;46.10
32612;DHT22;19030;49.478;8.986;2022-07-26T08:49:26;30.40;45.20
32612;DHT22;19030;49.478;8.986;2022-07-26T08:51:27;29.70;47.10
32612;DHT22;19030;49.478;8.986;2022-07-26T08:53:28;30.30;47.20
32612;DHT22;19030;49.478;8.986;2022-07-26T08:55:30;30.90;46.20
32612;DHT22;19030;49.478;8.986;2022-07-26T08:57:30;31.90;44.70
32612;DHT22;19030;49.478;8.986;2022-07-26T08:59:31;32.60;42.90
32612;DHT22;19030;49.478;8.986;2022-07-26T09:01:31;33.10;41.20
32612;DHT22;19030;49.478;8.986;2022-07-26T09:03:32;33.30;40.50
32612;DHT22;19030;49.478;8.986;2022-07-26T09:05:34;33.20;40.20
32612;DHT22;19030;49.478;8.986;2022-07-26T09:07:35;33.50;39.80
32612;DHT22;19030;49.478;8.986;2022-07-26T09:09:39;33.20;39.80
32612;DHT22;19030;49.478;8.986;2022-07-26T09:11:55;33.30;40.00
32612;DHT22;19030;49.478;8.986;2022-07-26T09:13:59;33.00;40.40
32612;DHT22;19030;49.478;8.986;2022-07-26T09:16:09;32.40;40.50
32612;DHT22;19030;49.478;8.986;2022-07-26T09:18:27;31.50;41.90
32612;DHT22;19030;49.478;8.986;2022-07-26T09:20:30;31.00;42.10
32612;DHT22;19030;49.478;8.986;2022-07-26T09:22:31;31.60;41.90
32612;DHT22;19030;49.478;8.986;2022-07-26T09:24:39;32.50;40.20
32612;DHT22;19030;49.478;8.986;2022-07-26T09:26:54;32.80;38.90
32612;DHT22;19030;49.478;8.986;2022-07-26T09:29:08;31.80;40.50
32612;DHT22;19030;49.478;8.986;2022-07-26T09:31:09;31.30;42.30
32612;DHT22;19030;49.478;8.986;2022-07-26T09:33:09;32.10;39.60
32612;DHT22;19030;49.478;8.986;2022-07-26T09:35:14;32.60;38.60
32612;DHT22;19030;49.478;8.986;2022-07-26T09:37:16;33.10;38.00
32612;DHT22;19030;49.478;8.986;2022-07-26T09:39:17;33.40;37.80
32612;DHT22;19030;49.478;8.986;2022-07-26T09:41:22;33.40;37.60
32612;DHT22;19030;49.478;8.986;2022-07-26T09:43:23;34.00;36.50
32612;DHT22;19030;49.478;8.986;2022-07-26T09:45:24;34.10;36.20
32612;DHT22;19030;49.478;8.986;2022-07-26T09:47:38;34.20;36.00
32612;DHT22;19030;49.478;8.986;2022-07-26T09:49:40;34.90;35.50
32612;DHT22;19030;49.478;8.986;2022-07-26T09:51:43;35.70;34.00
32612;DHT22;19030;49.478;8.986;2022-07-26T09:53:46;36.90;32.80
32612;DHT22;19030;49.478;8.986;2022-07-26T09:57:50;36.70;31.30
32612;DHT22;19030;49.478;8.986;2022-07-26T09:59:51;35.50;33.30
32612;DHT22;19030;49.478;8.986;2022-07-26T10:01:54;35.30;33.10
32612;DHT22;19030;49.478;8.986;2022-07-26T10:03:55;34.70;33.60
32612;DHT22;19030;49.478;8.986;2022-07-26T10:06:00;33.60;35.00
32612;DHT22;19030;49.478;8.986;2022-07-26T10:08:01;32.30;36.90
32612;DHT22;19030;49.478;8.986;2022-07-26T10:10:09;31.00;39.00
32612;DHT22;19030;49.478;8.986;2022-07-26T10:12:15;30.70;40.50
32612;DHT22;19030;49.478;8.986;2022-07-26T10:14:35;31.20;39.50
32612;DHT22;19030;49.478;8.986;2022-07-26T10:16:36;32.10;38.60
32612;DHT22;19030;49.478;8.986;2022-07-26T10:20:41;35.40;34.20
32612;DHT22;19030;49.478;8.986;2022-07-26T10:22:45;36.00;33.60
32612;DHT22;19030;49.478;8.986;2022-07-26T10:24:46;35.00;34.20
32612;DHT22;19030;49.478;8.986;2022-07-26T10:26:46;35.30;34.10
32612;DHT22;19030;49.478;8.986;2022-07-26T10:28:47;35.20;33.50
32612;DHT22;19030;49.478;8.986;2022-07-26T10:30:47;33.90;34.20
32612;DHT22;19030;49.478;8.986;2022-07-26T10:33:02;32.40;36.80
32612;DHT22;19030;49.478;8.986;2022-07-26T10:37:29;30.20;40.70
32612;DHT22;19030;49.478;8.986;2022-07-26T10:39:30;29.70;41.90
32612;DHT22;19030;49.478;8.986;2022-07-26T10:41:39;29.30;42.30
32612;DHT22;19030;49.478;8.986;2022-07-26T10:43:40;29.10;42.30
32612;DHT22;19030;49.478;8.986;2022-07-26T10:45:41;29.00;43.10
32612;DHT22;19030;49.478;8.986;2022-07-26T10:50:28;29.10;43.70
32612;DHT22;19030;49.478;8.986;2022-07-26T10:52:31;29.30;42.90
32612;DHT22;19030;49.478;8.986;2022-07-26T10:56:55;28.80;43.90
32612;DHT22;19030;49.478;8.986;2022-07-26T10:58:56;28.70;44.10
32612;DHT22;19030;49.478;8.986;2022-07-26T11:01:02;28.50;44.90
32612;DHT22;19030;49.478;8.986;2022-07-26T11:03:03;28.20;44.60
32612;DHT22;19030;49.478;8.986;2022-07-26T11:05:11;28.00;46.00
32612;DHT22;19030;49.478;8.986;2022-07-26T11:07:12;27.90;46.20
32612;DHT22;19030;49.478;8.986;2022-07-26T11:09:13;28.10;46.00
32612;DHT22;19030;49.478;8.986;2022-07-26T11:11:20;28.50;45.60
32612;DHT22;19030;49.478;8.986;2022-07-26T11:13:31;28.90;44.70
32612;DHT22;19030;49.478;8.986;2022-07-26T11:15:32;29.10;44.30
32612;DHT22;19030;49.478;8.986;2022-07-26T11:17:33;29.30;44.50
32612;DHT22;19030;49.478;8.986;2022-07-26T11:19:38;29.70;44.00
32612;DHT22;19030;49.478;8.986;2022-07-26T11:21:39;29.70;43.80
32612;DHT22;19030;49.478;8.986;2022-07-26T11:23:42;29.20;43.50
32612;DHT22;19030;49.478;8.986;2022-07-26T11:26:04;28.60;44.70
32612;DHT22;19030;49.478;8.986;2022-07-26T11:28:05;28.70;45.40
32612;DHT22;19030;49.478;8.986;2022-07-26T11:30:05;28.90;44.20
32612;DHT22;19030;49.478;8.986;2022-07-26T11:32:15;29.20;43.80
32612;DHT22;19030;49.478;8.986;2022-07-26T11:34:23;29.40;43.80
32612;DHT22;19030;49.478;8.986;2022-07-26T11:36:34;29.80;43.20
32612;DHT22;19030;49.478;8.986;2022-07-26T11:38:50;30.40;42.30
32612;DHT22;19030;49.478;8.986;2022-07-26T11:40:51;30.10;41.60
32612;DHT22;19030;49.478;8.986;2022-07-26T11:42:54;29.80;42.20
32612;DHT22;19030;49.478;8.986;2022-07-26T11:44:55;29.60;43.20
32612;DHT22;19030;49.478;8.986;2022-07-26T11:46:56;29.30;43.20
32612;DHT22;19030;49.478;8.986;2022-07-26T11:49:00;29.40;43.20
32612;DHT22;19030;49.478;8.986;2022-07-26T11:51:11;29.60;44.10
32612;DHT22;19030;49.478;8.986;2022-07-26T11:53:21;30.30;42.50
32612;DHT22;19030;49.478;8.986;2022-07-26T11:55:29;31.00;41.80
32612;DHT22;19030;49.478;8.986;2022-07-26T11:57:30;31.10;41.00
32612;DHT22;19030;49.478;8.986;2022-07-26T11:59:33;30.50;41.00
32612;DHT22;19030;49.478;8.986;2022-07-26T12:01:34;30.10;42.40
32612;DHT22;19030;49.478;8.986;2022-07-26T12:03:37;30.20;42.40
32612;DHT22;19030;49.478;8.986;2022-07-26T12:05:37;30.40;41.80
32612;DHT22;19030;49.478;8.986;2022-07-26T12:07:38;30.50;41.30
32612;DHT22;19030;49.478;8.986;2022-07-26T12:09:52;30.60;41.50
32612;DHT22;19030;49.478;8.986;2022-07-26T12:11:52;30.40;41.40
32612;DHT22;19030;49.478;8.986;2022-07-26T12:15:55;29.80;42.60
32612;DHT22;19030;49.478;8.986;2022-07-26T12:17:57;29.70;43.70
32612;DHT22;19030;49.478;8.986;2022-07-26T12:20:12;29.40;43.50
32612;DHT22;19030;49.478;8.986;2022-07-26T12:22:15;29.20;43.10
32612;DHT22;19030;49.478;8.986;2022-07-26T12:26:39;29.40;43.00
32612;DHT22;19030;49.478;8.986;2022-07-26T12:28:40;29.90;42.80
32612;DHT22;19030;49.478;8.986;2022-07-26T12:30:41;30.40;42.10
32612;DHT22;19030;49.478;8.986;2022-07-26T12:32:43;30.70;41.40
32612;DHT22;19030;49.478;8.986;2022-07-26T12:37:13;30.20;41.00
32612;DHT22;19030;49.478;8.986;2022-07-26T12:39:21;29.70;42.30
32612;DHT22;19030;49.478;8.986;2022-07-26T12:41:36;29.50;42.40
32612;DHT22;19030;49.478;8.986;2022-07-26T12:43:41;29.20;42.20
32612;DHT22;19030;49.478;8.986;2022-07-26T12:45:41;28.90;42.60
32612;DHT22;19030;49.478;8.986;2022-07-26T12:47:44;28.90;43.30
32612;DHT22;19030;49.478;8.986;2022-07-26T12:49:46;29.10;44.20
32612;DHT22;19030;49.478;8.986;2022-07-26T12:51:47;29.20;43.50
32612;DHT22;19030;49.478;8.986;2022-07-26T12:53:48;29.00;42.80
32612;DHT22;19030;49.478;8.986;2022-07-26T12:55:49;28.80;42.90
32612;DHT22;19030;49.478;8.986;2022-07-26T12:57:49;28.70;43.60
32612;DHT22;19030;49.478;8.986;2022-07-26T12:59:50;28.50;43.50
32612;DHT22;19030;49.478;8.986;2022-07-26T13:01:50;28.30;44.20
32612;DHT22;19030;49.478;8.986;2022-07-26T13:03:53;28.10;45.10
32612;DHT22;19030;49.478;8.986;2022-07-26T13:05:54;27.70;45.20
32612;DHT22;19030;49.478;8.986;2022-07-26T13:07:55;27.40;45.80
32612;DHT22;19030;49.478;8.986;2022-07-26T13:09:56;27.20;46.50
32612;DHT22;19030;49.478;8.986;2022-07-26T13:11:56;27.10;46.50